Time;durP1;ratioP1;P1;durP2;ratioP2;P2;SDS_P1;SDS_P2;PMS_P1;PMS_P2;Temp;Humidity;BMP_temperature;BMP_pressure;BME280_temperature;BME280_humidity;BME280_pressure;Samples;Min_cycle;Max_cycle;Signal;HPM_P1;HPM_P2
2021/11/03 00:02:10;;;;;;;11.60;6.80;;;5.50;99.90;;;;;;4960499;28;20455;-77
2021/11/03 00:04:39;;;;;;;11.90;6.55;;;5.40;99.90;;;;;;4959389;29;20110;-77
2021/11/03 00:07:10;;;;;;;11.90;6.50;;;5.40;99.90;;;;;;4960433;28;20420;-77
2021/11/03 00:09:39;;;;;;;12.65;6.43;;;5.30;99.90;;;;;;4959470;29;20035;-77
2021/11/03 00:12:12;;;;;;;11.07;5.88;;;5.20;99.90;;;;;;4960478;29;20047;-77
2021/11/03 00:14:39;;;;;;;11.77;5.80;;;5.10;99.90;;;;;;4961188;29;20023;-77
2021/11/03 00:17:07;;;;;;;10.23;5.20;;;5.10;99.90;;;;;;4961047;28;20047;-77
2021/11/03 00:19:35;;;;;;;11.95;5.82;;;5.00;99.90;;;;;;4961790;28;20023;-77
2021/11/03 00:22:03;;;;;;;11.05;5.38;;;4.90;99.90;;;;;;4961010;29;20020;-77
2021/11/03 00:24:34;;;;;;;12.68;6.82;;;4.80;99.90;;;;;;4961270;28;20019;-77
2021/11/03 00:27:02;;;;;;;12.35;6.45;;;4.80;99.90;;;;;;4961188;28;20026;-77
2021/11/03 00:29:30;;;;;;;15.35;6.65;;;4.70;99.90;;;;;;4961443;28;20031;-77
2021/11/03 00:31:57;;;;;;;17.13;7.70;;;4.60;99.90;;;;;;4960752;28;20023;-77
2021/11/03 00:34:25;;;;;;;19.80;8.48;;;4.60;99.90;;;;;;4958925;28;20027;-77
2021/11/03 00:36:52;;;;;;;17.85;7.68;;;4.50;99.90;;;;;;4958780;29;20110;-77
2021/11/03 00:39:22;;;;;;;17.15;6.07;;;4.50;99.90;;;;;;4960345;28;20106;-77
2021/11/03 00:41:50;;;;;;;14.63;6.78;;;4.50;99.90;;;;;;4966380;28;20042;-77
2021/11/03 00:44:18;;;;;;;19.63;8.85;;;4.40;99.90;;;;;;4979704;28;20019;-77
2021/11/03 00:46:45;;;;;;;20.70;8.55;;;4.40;99.90;;;;;;4978960;28;20023;-77
2021/11/03 00:49:12;;;;;;;15.85;6.65;;;4.40;99.90;;;;;;4961687;28;20034;-77
2021/11/03 00:51:40;;;;;;;13.57;7.20;;;4.30;99.90;;;;;;4979460;28;20082;-77
2021/11/03 00:54:07;;;;;;;13.10;7.07;;;4.30;99.90;;;;;;4978838;28;20147;-77
2021/11/03 00:56:34;;;;;;;12.77;6.65;;;4.20;99.90;;;;;;4979678;28;20086;-77
2021/11/03 00:59:03;;;;;;;17.80;7.90;;;4.20;99.90;;;;;;4979884;28;20023;-77
2021/11/03 01:01:31;;;;;;;15.02;6.82;;;4.10;99.90;;;;;;4962284;28;20033;-77
2021/11/03 01:03:59;;;;;;;13.88;6.80;;;4.00;99.90;;;;;;4979774;28;20292;-77
2021/11/03 01:06:26;;;;;;;13.95;6.65;;;3.90;99.90;;;;;;4980037;28;20015;-77
2021/11/03 01:08:54;;;;;;;15.23;6.10;;;3.90;99.90;;;;;;4979651;28;20081;-77
2021/11/03 01:11:21;;;;;;;11.75;5.75;;;3.80;99.90;;;;;;4979434;28;20443;-77
2021/11/03 01:13:49;;;;;;;15.95;6.07;;;3.70;99.90;;;;;;4962236;28;20038;-77
2021/11/03 01:16:17;;;;;;;18.90;8.27;;;3.60;99.90;;;;;;4978966;28;20027;-77
2021/11/03 01:18:44;;;;;;;19.98;8.20;;;3.60;99.90;;;;;;4961249;28;20441;-77
2021/11/03 01:21:12;;;;;;;16.48;7.95;;;3.60;99.90;;;;;;4978337;28;20522;-77
2021/11/03 01:23:39;;;;;;;16.92;8.40;;;3.60;99.90;;;;;;4978334;28;20319;-77
2021/11/03 01:26:06;;;;;;;21.73;9.48;;;3.50;99.90;;;;;;4978772;28;20022;-77
2021/11/03 01:28:34;;;;;;;32.60;9.85;;;3.50;99.90;;;;;;4978680;28;20078;-77
2021/11/03 01:31:01;;;;;;;25.05;10.07;;;3.50;99.90;;;;;;4978192;28;20387;-77
2021/11/03 01:33:29;;;;;;;19.38;8.18;;;3.50;99.90;;;;;;4960968;28;20033;-77
2021/11/03 01:35:56;;;;;;;19.38;8.35;;;3.50;99.90;;;;;;4960974;28;20300;-77
2021/11/03 01:38:23;;;;;;;16.98;7.80;;;3.50;99.90;;;;;;4978673;28;20420;-77
2021/11/03 01:40:52;;;;;;;15.20;7.18;;;3.40;99.90;;;;;;4978956;28;20030;-77
2021/11/03 01:43:44;;;;;;;18.00;7.30;;;3.30;99.90;;;;;;4978719;28;20320;-77
2021/11/03 01:46:44;;;;;;;16.70;8.13;;;3.30;99.90;;;;;;4978821;28;20015;-77
2021/11/03 01:49:24;;;;;;;20.17;7.20;;;3.20;99.90;;;;;;4978931;28;20046;-77
2021/11/03 01:51:54;;;;;;;19.67;9.15;;;3.20;99.90;;;;;;4978823;28;20019;-77
2021/11/03 01:54:46;;;;;;;16.92;7.85;;;3.10;99.90;;;;;;4979015;28;20082;-77
2021/11/03 01:57:23;;;;;;;17.63;7.43;;;3.10;99.90;;;;;;4979072;28;20027;-77
2021/11/03 01:59:55;;;;;;;18.63;7.28;;;3.00;99.90;;;;;;4978232;28;20028;-77
2021/11/03 02:02:22;;;;;;;20.88;7.57;;;2.90;99.90;;;;;;4978241;28;20049;-77
2021/11/03 02:04:50;;;;;;;22.58;9.15;;;2.80;99.90;;;;;;4977991;28;20027;-77
2021/11/03 02:07:27;;;;;;;18.55;7.93;;;2.80;99.90;;;;;;4977601;28;20027;-77
2021/11/03 02:09:54;;;;;;;;;;;2.70;99.90;;;;;;4978077;28;20034;-77
2021/11/03 02:12:24;;;;;;;14.60;6.85;;;2.70;99.90;;;;;;4977656;28;19906;-77
2021/11/03 02:14:53;;;;;;;14.52;6.75;;;2.60;99.90;;;;;;4977544;28;20439;-76
2021/11/03 02:17:22;;;;;;;17.23;7.50;;;2.60;99.90;;;;;;4977454;28;20027;-77
2021/11/03 02:19:52;;;;;;;15.95;7.45;;;2.50;99.90;;;;;;4977667;28;20435;-77
2021/11/03 02:22:46;;;;;;;17.75;7.40;;;2.40;99.90;;;;;;4978986;28;20018;-77
2021/11/03 02:25:19;;;;;;;18.63;7.40;;;2.40;99.90;;;;;;4961455;28;20055;-77
2021/11/03 02:27:49;;;;;;;18.48;7.72;;;2.40;99.90;;;;;;4978440;28;20030;-76
2021/11/03 02:30:26;;;;;;;21.48;7.60;;;2.40;99.90;;;;;;4961272;28;20038;-77
2021/11/03 02:33:01;;;;;;;20.42;9.10;;;2.30;99.90;;;;;;4978541;28;20054;-77
2021/11/03 02:35:29;;;;;;;21.10;8.23;;;2.30;99.90;;;;;;4978623;28;20078;-77
2021/11/03 02:37:58;;;;;;;17.05;8.05;;;2.30;99.90;;;;;;4978572;28;20113;-77
2021/11/03 02:40:49;;;;;;;20.80;8.75;;;2.20;99.90;;;;;;4978006;28;20054;-77
2021/11/03 02:43:26;;;;;;;17.95;7.45;;;2.20;99.90;;;;;;4977272;28;20051;-77
2021/11/03 02:46:00;;;;;;;15.05;7.28;;;2.10;99.90;;;;;;4977174;28;20047;-77
2021/11/03 02:48:32;;;;;;;20.52;7.88;;;2.00;99.90;;;;;;4977207;28;20037;-76
2021/11/03 02:51:13;;;;;;;17.08;7.63;;;1.90;99.90;;;;;;4977565;28;20031;-76
2021/11/03 02:53:50;;;;;;;16.88;7.40;;;1.90;99.90;;;;;;4977466;28;20023;-77
2021/11/03 02:56:23;;;;;;;21.42;7.65;;;1.90;99.90;;;;;;4977233;28;20026;-77
2021/11/03 02:58:50;;;;;;;22.75;8.65;;;1.90;99.90;;;;;;4960022;28;20027;-77
2021/11/03 03:01:48;;;;;;;21.27;8.15;;;1.80;99.90;;;;;;4960044;28;20023;-77
2021/11/03 03:04:22;;;;;;;27.48;9.48;;;1.80;99.90;;;;;;4959737;28;20345;-77
2021/11/03 03:06:50;;;;;;;21.70;9.15;;;1.80;99.90;;;;;;4960910;28;20344;-77
2021/11/03 03:09:18;;;;;;;30.40;10.23;;;1.80;99.90;;;;;;4960895;28;20042;-77
2021/11/03 03:11:49;;;;;;;26.63;10.57;;;1.80;99.90;;;;;;4978030;28;20110;-77
2021/11/03 03:14:19;;;;;;;27.52;10.02;;;1.80;99.90;;;;;;4978192;28;20042;-77
2021/11/03 03:16:46;;;;;;;22.25;8.95;;;1.80;99.90;;;;;;4978025;28;20074;-77
2021/11/03 03:19:15;;;;;;;25.98;10.10;;;1.80;99.90;;;;;;4977888;28;20034;-77
2021/11/03 03:21:42;;;;;;;30.55;10.00;;;1.80;99.90;;;;;;4978222;28;20026;-77
2021/11/03 03:24:11;;;;;;;26.67;9.98;;;1.80;99.90;;;;;;4977923;28;20041;-77
2021/11/03 03:26:40;;;;;;;25.05;8.43;;;1.70;99.90;;;;;;4979218;28;20030;-77
2021/11/03 03:29:08;;;;;;;26.42;8.98;;;1.70;99.90;;;;;;4980400;28;20423;-77
2021/11/03 03:31:36;;;;;;;21.05;9.02;;;1.70;99.90;;;;;;4980338;28;20114;-77
2021/11/03 03:34:07;;;;;;;22.00;8.43;;;1.70;99.90;;;;;;4980453;28;20110;-77
2021/11/03 03:36:36;;;;;;;24.90;8.55;;;1.60;99.90;;;;;;4980289;28;20510;-76
2021/11/03 03:39:08;;;;;;;32.10;10.07;;;1.60;99.90;;;;;;4980190;28;20026;-77
2021/11/03 03:41:37;;;;;;;31.15;10.82;;;1.60;99.90;;;;;;4979833;28;20435;-77
2021/11/03 03:44:05;;;;;;;27.75;9.88;;;1.60;99.90;;;;;;4980149;28;20038;-77
2021/11/03 03:46:32;;;;;;;35.33;12.80;;;1.60;99.90;;;;;;4980335;28;20026;-77
2021/11/03 03:49:00;;;;;;;31.15;11.52;;;1.60;99.90;;;;;;4980913;28;20033;-77
2021/11/03 03:51:28;;;;;;;32.65;11.68;;;1.60;99.90;;;;;;4980959;28;20038;-77
2021/11/03 03:53:55;;;;;;;35.45;10.88;;;1.60;99.90;;;;;;4981148;28;20048;-77
2021/11/03 03:56:23;;;;;;;27.33;11.35;;;1.60;99.90;;;;;;4962965;28;20034;-77
2021/11/03 03:58:51;;;;;;;24.52;9.80;;;1.60;99.90;;;;;;4981225;28;20023;-77
2021/11/03 04:01:23;;;;;;;33.08;10.43;;;1.60;99.90;;;;;;4981003;28;20398;-77
2021/11/03 04:03:50;;;;;;;24.65;9.30;;;1.60;99.90;;;;;;4980973;28;20030;-77
2021/11/03 04:06:18;;;;;;;30.33;10.88;;;1.60;99.90;;;;;;4962939;28;20031;-77
2021/11/03 04:08:45;;;;;;;37.28;11.48;;;1.50;99.90;;;;;;4962693;28;20142;-76
2021/11/03 04:11:13;;;;;;;38.05;11.93;;;1.50;99.90;;;;;;4979663;28;20031;-77
2021/11/03 04:13:40;;;;;;;40.17;12.57;;;1.60;99.90;;;;;;4962490;28;20432;-77
2021/11/03 04:16:08;;;;;;;32.95;11.85;;;1.70;99.90;;;;;;4979812;28;20053;-77
2021/11/03 04:18:35;;;;;;;31.88;11.80;;;1.70;99.90;;;;;;4962375;28;20336;-77
2021/11/03 04:21:03;;;;;;;30.35;10.65;;;1.70;99.90;;;;;;4980040;28;20019;-77
2021/11/03 04:23:31;;;;;;;36.30;11.57;;;1.70;99.90;;;;;;4980052;28;20023;-77
2021/11/03 04:25:59;;;;;;;32.22;11.32;;;1.70;99.90;;;;;;4979404;28;20014;-77
2021/11/03 04:28:27;;;;;;;35.00;10.75;;;1.80;99.90;;;;;;4979800;28;20027;-77
2021/11/03 04:30:55;;;;;;;36.42;11.77;;;1.70;99.90;;;;;;4980488;28;20023;-77
2021/11/03 04:33:22;;;;;;;37.60;10.43;;;1.80;99.90;;;;;;4980176;28;20034;-77
2021/11/03 04:35:50;;;;;;;34.08;10.80;;;1.80;99.90;;;;;;4979990;28;20324;-77
2021/11/03 04:38:18;;;;;;;35.55;11.35;;;1.80;99.90;;;;;;4980209;28;20023;-76
2021/11/03 04:40:46;;;;;;;33.97;10.90;;;1.70;99.90;;;;;;4980062;28;20113;-76
2021/11/03 04:43:13;;;;;;;25.73;10.02;;;1.70;99.90;;;;;;4959511;29;20051;-77
2021/11/03 04:45:41;;;;;;;34.38;10.98;;;1.70;99.90;;;;;;4960871;29;20027;-76
2021/11/03 04:48:08;;;;;;;39.63;12.20;;;1.70;99.90;;;;;;4960548;28;20102;-77
2021/11/03 04:50:36;;;;;;;38.97;12.15;;;1.70;99.90;;;;;;4958568;29;20023;-76
2021/11/03 04:53:04;;;;;;;36.33;11.98;;;1.70;99.90;;;;;;4959892;29;20035;-77
2021/11/03 04:55:32;;;;;;;32.28;11.35;;;1.60;99.90;;;;;;4958476;29;20032;-77
2021/11/03 04:58:00;;;;;;;27.77;10.25;;;1.60;99.90;;;;;;4958499;29;20034;-77
2021/11/03 05:00:31;;;;;;;31.63;10.80;;;1.60;99.90;;;;;;4959431;29;20026;-76
2021/11/03 05:02:59;;;;;;;30.50;11.05;;;1.50;99.90;;;;;;4959318;28;20028;-77
2021/11/03 05:05:26;;;;;;;30.98;11.23;;;1.50;99.90;;;;;;4959388;29;20030;-77
2021/11/03 05:07:54;;;;;;;28.48;11.05;;;1.50;99.90;;;;;;4958267;29;20051;-77
2021/11/03 05:10:23;;;;;;;29.63;10.35;;;1.50;99.90;;;;;;4959301;29;20077;-77
2021/11/03 05:12:50;;;;;;;27.58;9.77;;;1.50;99.90;;;;;;4959087;29;20031;-77
2021/11/03 05:15:18;;;;;;;23.55;9.65;;;1.40;99.90;;;;;;4960272;28;20023;-77
2021/11/03 05:17:45;;;;;;;25.42;9.15;;;1.40;99.90;;;;;;4960162;28;20028;-77
2021/11/03 05:20:17;;;;;;;33.67;9.88;;;1.40;99.90;;;;;;4958954;29;20019;-77
2021/11/03 05:22:45;;;;;;;22.42;9.10;;;1.30;99.90;;;;;;4960036;28;20015;-77
2021/11/03 05:25:19;;;;;;;22.85;9.50;;;1.30;99.90;;;;;;4960073;29;20030;-77
2021/11/03 05:27:48;;;;;;;30.17;9.10;;;1.30;99.90;;;;;;4959919;28;20071;-77
2021/11/03 05:30:17;;;;;;;23.88;8.38;;;1.30;99.90;;;;;;4959988;28;20023;-77
2021/11/03 05:32:46;;;;;;;22.88;8.45;;;1.20;99.90;;;;;;4957744;28;20113;-77
2021/11/03 05:35:14;;;;;;;20.85;8.23;;;1.20;99.90;;;;;;4959611;28;20428;-76
2021/11/03 05:37:41;;;;;;;22.55;7.82;;;1.10;99.90;;;;;;4959047;28;20059;-76
2021/11/03 05:40:13;;;;;;;25.63;8.35;;;1.10;99.90;;;;;;4958715;28;20027;-77
2021/11/03 05:42:41;;;;;;;26.35;9.25;;;1.10;99.90;;;;;;4970648;28;20133;-76
2021/11/03 05:45:09;;;;;;;23.40;9.38;;;1.10;99.90;;;;;;4978341;28;20030;-76
2021/11/03 05:47:37;;;;;;;27.05;8.30;;;1.10;99.90;;;;;;4960330;28;20035;-77
2021/11/03 05:50:06;;;;;;;23.30;9.70;;;1.10;99.90;;;;;;4977538;28;20026;-77
2021/11/03 05:52:34;;;;;;;20.27;8.63;;;1.10;99.90;;;;;;4977837;28;20038;-77
2021/11/03 05:55:02;;;;;;;24.75;9.15;;;1.10;99.90;;;;;;4961455;28;20031;-76
2021/11/03 05:57:35;;;;;;;24.27;8.75;;;1.10;99.90;;;;;;4961443;28;20030;-77
2021/11/03 06:00:15;;;;;;;19.88;7.32;;;1.10;99.90;;;;;;4978727;28;20023;-76
2021/11/03 06:02:43;;;;;;;25.02;8.60;;;1.10;99.90;;;;;;4978551;28;20029;-77
2021/11/03 06:05:14;;;;;;;20.17;7.85;;;1.00;99.90;;;;;;4979037;28;20046;-76
2021/11/03 06:07:53;;;;;;;25.25;8.98;;;1.00;99.90;;;;;;4978619;28;20085;-76
2021/11/03 06:13:24;;;;;;;25.13;8.60;;;1.00;99.90;;;;;;4978431;28;20446;-76
2021/11/03 06:15:52;;;;;;;24.85;7.65;;;1.00;99.90;;;;;;4977923;28;20116;-77
2021/11/03 06:18:19;;;;;;;28.95;8.90;;;1.00;99.90;;;;;;4977445;28;20037;-77
2021/11/03 06:20:47;;;;;;;21.90;8.52;;;1.10;99.90;;;;;;4960391;28;20419;-78
2021/11/03 06:23:14;;;;;;;19.42;7.63;;;1.10;99.90;;;;;;4960458;28;20034;-78
2021/11/03 06:25:41;;;;;;;25.33;9.48;;;1.00;99.90;;;;;;4977588;28;20023;-78
2021/11/03 06:28:09;;;;;;;17.15;6.43;;;1.10;99.90;;;;;;4977445;28;20432;-78
2021/11/03 06:30:37;;;;;;;21.05;8.40;;;1.00;99.90;;;;;;4960362;28;20027;-78
2021/11/03 06:33:06;;;;;;;19.83;7.60;;;1.10;99.90;;;;;;4960313;28;20042;-78
2021/11/03 06:35:36;;;;;;;22.95;7.20;;;1.00;99.90;;;;;;4977951;28;20027;-78
2021/11/03 06:38:05;;;;;;;22.40;7.85;;;1.10;99.90;;;;;;4961511;28;20026;-78
2021/11/03 06:40:33;;;;;;;26.05;8.95;;;1.20;99.90;;;;;;4978745;28;20154;-78
2021/11/03 06:43:01;;;;;;;26.38;8.50;;;1.30;99.90;;;;;;4978443;28;20047;-78
2021/11/03 06:45:29;;;;;;;25.60;8.52;;;1.40;99.90;;;;;;4978445;28;20050;-79
2021/11/03 06:47:58;;;;;;;31.13;10.02;;;1.50;99.90;;;;;;4978424;28;20408;-79
2021/11/03 06:50:29;;;;;;;21.95;8.70;;;1.70;99.90;;;;;;4978472;28;20122;-78
2021/11/03 06:52:59;;;;;;;25.05;9.60;;;1.80;99.90;;;;;;4978244;28;20382;-78
2021/11/03 06:55:27;;;;;;;19.55;7.45;;;1.90;99.90;;;;;;4978155;28;20034;-78
2021/11/03 06:57:58;;;;;;;20.13;7.32;;;1.90;99.90;;;;;;4960427;28;20031;-79
2021/11/03 07:00:33;;;;;;;20.38;8.57;;;2.00;99.90;;;;;;4962266;28;20023;-79
2021/11/03 07:03:01;;;;;;;22.88;8.02;;;2.00;99.90;;;;;;4981091;28;20018;-82
2021/11/03 07:05:30;;;;;;;16.95;7.97;;;2.10;99.90;;;;;;4963945;28;20027;-79
2021/11/03 07:07:57;;;;;;;22.60;8.18;;;2.20;99.90;;;;;;4964020;28;20428;-77
2021/11/03 07:10:35;;;;;;;17.00;6.80;;;2.20;99.90;;;;;;4980878;28;20082;-78
2021/11/03 07:13:03;;;;;;;14.88;6.88;;;2.30;99.90;;;;;;4981208;28;20027;-80
2021/11/03 07:15:32;;;;;;;15.50;6.85;;;2.30;99.90;;;;;;4963762;28;20390;-77
2021/11/03 07:18:00;;;;;;;15.10;6.60;;;2.30;99.90;;;;;;4963750;28;20027;-82
2021/11/03 07:20:28;;;;;;;13.50;6.25;;;2.40;99.90;;;;;;4964407;28;20431;-78
2021/11/03 07:22:56;;;;;;;14.77;6.57;;;2.50;99.90;;;;;;4964541;28;20420;-81
2021/11/03 07:25:25;;;;;;;19.95;7.55;;;2.50;99.90;;;;;;4981880;28;20297;-77
2021/11/03 07:27:56;;;;;;;16.77;6.65;;;2.50;99.90;;;;;;4981599;28;20022;-80
2021/11/03 07:30:32;;;;;;;13.65;6.35;;;2.60;99.90;;;;;;4981578;28;20048;-79
2021/11/03 07:33:00;;;;;;;15.25;6.53;;;2.60;99.90;;;;;;4981620;28;20023;-79
2021/11/03 07:35:28;;;;;;;17.17;6.85;;;2.70;99.90;;;;;;4981401;28;20030;-78
2021/11/03 07:37:57;;;;;;;16.67;7.30;;;2.80;99.90;;;;;;4981223;28;20085;-80
2021/11/03 07:40:33;;;;;;;15.77;7.50;;;2.90;99.90;;;;;;4980432;28;20023;-79
2021/11/03 07:43:02;;;;;;;17.80;7.15;;;3.00;99.90;;;;;;4980130;28;20045;-78
2021/11/03 07:45:32;;;;;;;18.70;8.15;;;3.10;99.90;;;;;;4963176;28;20027;-78
2021/11/03 07:48:00;;;;;;;16.88;7.53;;;3.20;99.90;;;;;;4962611;28;20027;-79
2021/11/03 07:50:31;;;;;;;15.50;7.18;;;3.40;99.90;;;;;;4962841;28;20331;-78
2021/11/03 07:52:59;;;;;;;15.75;7.43;;;3.50;99.90;;;;;;4962749;28;20026;-76
2021/11/03 07:55:27;;;;;;;19.45;7.75;;;3.60;99.90;;;;;;4962770;28;20034;-80
2021/11/03 07:57:55;;;;;;;23.02;10.35;;;3.70;99.90;;;;;;4962717;28;20035;-77
2021/11/03 08:00:36;;;;;;;23.00;11.15;;;3.80;99.90;;;;;;4979924;28;20030;-71
2021/11/03 08:03:04;;;;;;;20.67;10.80;;;3.90;99.90;;;;;;4980855;28;20019;-71
2021/11/03 08:05:33;;;;;;;15.65;8.80;;;3.90;99.90;;;;;;4981056;28;20150;-71
2021/11/03 08:08:06;;;;;;;14.90;7.85;;;4.00;99.90;;;;;;4980705;28;20059;-71
2021/11/03 08:10:35;;;;;;;13.95;7.38;;;4.00;99.90;;;;;;4980873;28;20106;-71
2021/11/03 08:13:04;;;;;;;15.73;7.97;;;4.00;99.90;;;;;;4980164;28;20055;-71
2021/11/03 08:15:32;;;;;;;15.63;8.27;;;4.10;99.90;;;;;;4980577;28;20030;-71
2021/11/03 08:18:00;;;;;;;17.23;8.85;;;4.10;99.90;;;;;;4980404;28;20023;-71
2021/11/03 08:20:29;;;;;;;27.95;14.95;;;4.20;99.90;;;;;;4980752;28;20027;-71
2021/11/03 08:22:58;;;;;;;14.90;7.60;;;4.20;99.90;;;;;;4979656;28;20022;-71
2021/11/03 08:25:27;;;;;;;16.63;7.88;;;4.20;99.90;;;;;;4979401;28;20371;-71
2021/11/03 08:27:54;;;;;;;15.82;8.02;;;4.30;99.90;;;;;;4979923;28;20045;-71
2021/11/03 08:30:23;;;;;;;15.27;7.35;;;4.30;99.90;;;;;;4979652;28;20355;-71
2021/11/03 08:33:08;;;;;;;16.63;7.80;;;4.40;99.90;;;;;;4979275;28;20324;-71
2021/11/03 08:35:38;;;;;;;16.73;8.48;;;4.50;99.90;;;;;;4979819;28;20027;-71
2021/11/03 08:38:09;;;;;;;16.60;7.55;;;4.50;99.90;;;;;;4979982;28;20363;-71
2021/11/03 08:40:37;;;;;;;14.60;7.85;;;4.60;99.90;;;;;;4979161;28;20490;-71
2021/11/03 08:43:07;;;;;;;15.18;7.28;;;4.60;99.90;;;;;;4979076;28;20050;-72
2021/11/03 08:45:35;;;;;;;16.58;8.02;;;4.70;99.90;;;;;;4979866;28;20026;-71
2021/11/03 08:48:03;;;;;;;15.02;7.20;;;4.80;99.90;;;;;;4979836;28;20019;-71
2021/11/03 08:50:34;;;;;;;15.27;7.60;;;4.90;99.90;;;;;;4980041;28;20101;-70
2021/11/03 08:53:02;;;;;;;19.15;9.18;;;5.00;99.90;;;;;;4979973;28;20018;-71
2021/11/03 08:55:29;;;;;;;16.77;8.85;;;5.10;99.90;;;;;;4979988;28;20022;-69
2021/11/03 08:58:00;;;;;;;16.17;8.38;;;5.20;99.90;;;;;;4980255;28;20054;-71
2021/11/03 09:00:32;;;;;;;14.20;7.63;;;5.20;99.90;;;;;;4979657;28;20359;-71
2021/11/03 09:03:00;;;;;;;15.73;8.75;;;5.30;99.90;;;;;;4979811;28;20331;-71
2021/11/03 09:05:30;;;;;;;15.52;7.65;;;5.30;99.90;;;;;;4961706;28;20080;-71
2021/11/03 09:08:00;;;;;;;16.48;7.15;;;5.40;99.90;;;;;;4961626;28;20031;-71
2021/11/03 09:10:32;;;;;;;17.00;8.00;;;5.40;99.90;;;;;;4978556;28;20154;-69
2021/11/03 09:13:00;;;;;;;13.40;7.35;;;5.50;99.90;;;;;;4978753;28;20101;-69
2021/11/03 09:15:28;;;;;;;13.80;6.82;;;5.60;99.90;;;;;;4978799;28;20023;-69
2021/11/03 09:17:56;;;;;;;15.32;7.78;;;5.60;99.90;;;;;;4978380;28;20026;-69
2021/11/03 09:20:26;;;;;;;17.40;9.02;;;5.70;99.90;;;;;;4978391;28;20027;-72
2021/11/03 09:22:57;;;;;;;13.57;7.28;;;5.80;99.90;;;;;;4978251;28;20461;-71
2021/11/03 09:25:24;;;;;;;16.40;7.60;;;5.80;99.90;;;;;;4961268;28;20140;-72
2021/11/03 09:27:53;;;;;;;16.60;7.97;;;5.90;99.90;;;;;;4978749;28;20050;-70
2021/11/03 09:30:24;;;;;;;14.07;7.88;;;5.90;99.90;;;;;;4979628;28;20022;-70
2021/11/03 09:32:58;;;;;;;12.85;7.50;;;6.00;99.90;;;;;;4979115;28;20026;-70
2021/11/03 09:35:28;;;;;;;14.70;7.45;;;6.10;99.90;;;;;;4979290;28;20110;-70
2021/11/03 09:37:57;;;;;;;14.48;7.63;;;6.20;99.90;;;;;;4979048;28;20109;-70
2021/11/03 09:40:55;;;;;;;11.45;6.35;;;6.30;99.90;;;;;;4979102;28;20046;-70
2021/11/03 09:43:42;;;;;;;12.05;6.88;;;6.40;99.90;;;;;;4978861;28;20101;-70
2021/11/03 09:46:30;;;;;;;13.80;7.53;;;6.40;99.90;;;;;;4979380;28;20019;-69
2021/11/03 09:49:23;;;;;;;12.82;7.53;;;6.50;99.90;;;;;;4978611;28;20022;-70
2021/11/03 09:52:12;;;;;;;14.25;6.57;;;6.60;99.90;;;;;;4977963;28;20023;-70
2021/11/03 09:54:43;;;;;;;14.02;7.28;;;6.60;99.90;;;;;;4960733;28;20056;-71
2021/11/03 09:57:48;;;;;;;14.80;7.82;;;6.70;99.90;;;;;;4977907;28;20370;-70
2021/11/03 10:00:40;;;;;;;12.95;7.07;;;6.70;99.90;;;;;;4978369;28;20034;-70
2021/11/03 10:03:17;;;;;;;17.67;7.50;;;6.80;99.90;;;;;;4978264;28;20150;-70
2021/11/03 10:06:07;;;;;;;15.82;7.55;;;6.80;99.90;;;;;;4978353;28;20327;-70
2021/11/03 10:08:47;;;;;;;13.18;7.32;;;6.90;99.90;;;;;;4977733;28;20058;-70
2021/11/03 10:11:21;;;;;;;14.30;7.47;;;6.90;99.90;;;;;;4961095;28;20094;-70
2021/11/03 10:13:50;;;;;;;16.33;7.70;;;6.90;99.90;;;;;;4961580;28;20061;-70
2021/11/03 10:16:18;;;;;;;13.25;7.80;;;7.00;99.90;;;;;;4978553;28;20062;-70
2021/11/03 10:19:06;;;;;;;15.38;8.13;;;6.90;99.90;;;;;;4978989;28;20066;-70
2021/11/03 10:21:41;;;;;;;16.20;8.85;;;7.00;99.90;;;;;;4978486;28;20022;-70
2021/11/03 10:24:15;;;;;;;20.17;9.00;;;7.00;99.90;;;;;;4978669;28;20053;-70
2021/11/03 10:26:55;;;;;;;18.65;9.95;;;7.10;99.90;;;;;;4979008;28;20023;-70
2021/11/03 10:29:50;;;;;;;15.13;8.02;;;7.10;99.90;;;;;;4979006;28;20045;-70
2021/11/03 10:32:29;;;;;;;14.77;8.32;;;7.20;99.90;;;;;;4977647;28;20027;-70
2021/11/03 10:35:15;;;;;;;16.30;9.20;;;7.20;99.90;;;;;;4979544;28;20089;-70
2021/11/03 10:37:47;;;;;;;14.98;8.35;;;7.20;99.90;;;;;;4981634;28;20015;-69
2021/11/03 10:40:22;;;;;;;13.90;7.60;;;7.20;99.90;;;;;;4981408;28;20158;-70
2021/11/03 10:43:02;;;;;;;17.40;7.97;;;7.20;99.90;;;;;;4981307;28;20050;-70
2021/11/03 10:45:38;;;;;;;14.82;8.02;;;7.20;99.90;;;;;;4981205;28;20027;-70
2021/11/03 10:48:09;;;;;;;16.05;8.35;;;7.20;99.90;;;;;;4981195;28;20038;-69
2021/11/03 10:51:04;;;;;;;20.42;11.05;;;7.30;99.90;;;;;;4981738;28;20407;-70
2021/11/03 10:53:36;;;;;;;20.80;9.35;;;7.30;99.90;;;;;;4980494;28;20058;-70
2021/11/03 10:56:13;;;;;;;16.75;9.15;;;7.30;99.90;;;;;;4982577;28;20097;-70
2021/11/03 10:58:50;;;;;;;16.20;8.75;;;7.40;99.90;;;;;;4964709;28;20023;-70
2021/11/03 11:01:24;;;;;;;16.63;9.73;;;7.50;99.90;;;;;;4982445;28;20025;-70
2021/11/03 11:04:25;;;;;;;15.50;8.95;;;7.60;99.90;;;;;;4965581;28;20057;-70
2021/11/03 11:07:25;;;;;;;16.58;8.57;;;7.60;99.90;;;;;;4982391;28;20027;-70
2021/11/03 11:10:11;;;;;;;15.10;9.23;;;7.70;99.90;;;;;;4982238;28;20081;-70
2021/11/03 11:12:47;;;;;;;16.73;9.25;;;7.70;99.90;;;;;;4982071;28;20105;-70
2021/11/03 11:16:03;;;;;;;18.42;10.13;;;7.80;99.90;;;;;;4980806;28;20077;-70
2021/11/03 11:18:49;;;;;;;17.95;9.50;;;7.90;99.90;;;;;;4887106;29;20456;-70
2021/11/03 11:21:38;;;;;;;27.83;10.50;;;7.90;99.90;;;;;;4975474;28;20442;-69
2021/11/03 11:24:29;;;;;;;19.52;9.88;;;7.90;99.90;;;;;;4980776;28;20022;-70
2021/11/03 11:27:20;;;;;;;19.30;10.25;;;7.90;99.90;;;;;;4980834;28;20023;-71
2021/11/03 11:30:07;;;;;;;17.55;9.98;;;7.90;99.90;;;;;;4981071;28;20027;-70
2021/11/03 11:33:03;;;;;;;17.35;8.73;;;8.00;99.90;;;;;;4980890;28;20328;-69
2021/11/03 11:35:46;;;;;;;17.95;10.38;;;8.00;99.90;;;;;;4981331;28;20114;-70
2021/11/03 11:38:50;;;;;;;20.88;9.90;;;8.00;99.90;;;;;;4981752;28;20027;-70
2021/11/03 11:41:35;;;;;;;25.83;13.93;;;8.10;99.90;;;;;;4981505;28;20023;-70
2021/11/03 11:44:17;;;;;;;18.20;10.32;;;8.10;99.90;;;;;;4981323;28;20107;-69
2021/11/03 11:46:46;;;;;;;21.00;10.98;;;8.20;99.90;;;;;;4980399;28;20117;-69
2021/11/03 11:49:25;;;;;;;20.10;10.15;;;8.20;99.90;;;;;;4981100;28;20037;-70
2021/11/03 11:52:06;;;;;;;18.05;9.02;;;8.30;99.90;;;;;;4981035;28;20030;-70
2021/11/03 11:54:39;;;;;;;17.15;9.45;;;8.40;99.90;;;;;;4981115;28;20027;-70
2021/11/03 11:57:13;;;;;;;15.75;8.98;;;8.40;99.90;;;;;;4980524;28;20375;-70
2021/11/03 12:00:08;;;;;;;19.52;10.73;;;8.50;99.90;;;;;;4980422;28;20035;-70
2021/11/03 12:03:13;;;;;;;16.88;9.77;;;8.50;99.90;;;;;;4979723;28;20022;-70
2021/11/03 12:05:45;;;;;;;21.38;10.73;;;8.50;99.90;;;;;;4979826;28;20031;-70
2021/11/03 12:08:17;;;;;;;17.85;10.10;;;8.50;99.90;;;;;;4979719;28;20112;-70
2021/11/03 12:11:26;;;;;;;18.55;9.43;;;8.50;99.90;;;;;;4980342;28;20051;-70
2021/11/03 12:13:59;;;;;;;21.23;10.63;;;8.50;99.90;;;;;;4962714;28;20328;-70
2021/11/03 12:16:34;;;;;;;20.63;10.00;;;8.50;99.90;;;;;;4979632;28;20022;-70
2021/11/03 12:19:24;;;;;;;16.70;10.10;;;8.50;99.90;;;;;;4962953;28;20110;-70
2021/11/03 12:22:02;;;;;;;16.52;9.93;;;8.50;99.90;;;;;;4980942;28;20025;-70
2021/11/03 12:24:39;;;;;;;16.67;10.00;;;8.50;99.90;;;;;;4963693;28;20420;-70
2021/11/03 12:27:15;;;;;;;18.90;10.02;;;8.60;99.90;;;;;;4980608;28;20046;-70
2021/11/03 12:29:51;;;;;;;18.88;9.73;;;8.50;99.90;;;;;;4963128;28;20023;-70
2021/11/03 12:32:31;;;;;;;17.35;9.38;;;8.60;99.90;;;;;;4980716;28;20042;-70
2021/11/03 12:35:17;;;;;;;22.55;10.90;;;8.60;99.90;;;;;;4980282;28;20023;-70
2021/11/03 12:37:59;;;;;;;22.52;11.43;;;8.60;99.90;;;;;;4980228;28;20030;-70
2021/11/03 12:40:35;;;;;;;17.77;9.88;;;8.60;99.90;;;;;;4979722;28;20027;-70
2021/11/03 12:43:19;;;;;;;20.13;10.38;;;8.50;99.90;;;;;;4958610;29;20447;-70
2021/11/03 12:46:08;;;;;;;16.73;9.85;;;8.60;99.90;;;;;;4960348;29;20031;-70
2021/11/03 12:48:48;;;;;;;18.25;11.05;;;8.50;99.90;;;;;;4960406;28;20027;-70
2021/11/03 12:51:16;;;;;;;20.05;10.98;;;8.50;99.90;;;;;;4959634;29;20417;-70
2021/11/03 12:53:57;;;;;;;17.63;10.90;;;8.50;99.90;;;;;;4960154;29;20106;-70
2021/11/03 12:56:27;;;;;;;19.08;10.80;;;8.50;99.90;;;;;;4958725;29;20298;-70
2021/11/03 12:59:01;;;;;;;20.92;10.80;;;8.40;99.90;;;;;;4959768;28;20028;-70
2021/11/03 13:01:29;;;;;;;18.33;10.32;;;8.40;99.90;;;;;;4960193;28;20019;-70
2021/11/03 13:04:11;;;;;;;21.02;10.98;;;8.30;99.90;;;;;;4959242;28;20450;-70
2021/11/03 13:06:46;;;;;;;19.80;11.00;;;8.30;99.90;;;;;;4960332;29;20031;-69
2021/11/03 13:10:07;;;;;;;20.27;10.88;;;8.20;99.90;;;;;;4960909;29;20357;-70
2021/11/03 13:12:39;;;;;;;21.73;12.10;;;8.20;99.90;;;;;;4943877;28;20043;-70
2021/11/03 13:15:20;;;;;;;23.27;10.88;;;8.20;99.90;;;;;;4960141;29;20106;-69
2021/11/03 13:17:54;;;;;;;21.23;11.40;;;8.20;99.90;;;;;;4959976;28;20331;-70
2021/11/03 13:20:31;;;;;;;19.02;10.48;;;8.20;99.90;;;;;;4960607;29;20057;-70